sensor_id;sensor_type;location;lat;lon;timestamp;P1;durP1;ratioP1;P2;durP2;ratioP2
8040;SDS011;4063;48.140;10.250;2024-02-23T00:00:43;0.20;;;0.20;;
8040;SDS011;4063;48.140;10.250;2024-02-23T00:03:09;0.27;;;0.27;;
8040;SDS011;4063;48.140;10.250;2024-02-23T00:05:35;0.20;;;0.20;;
8040;SDS011;4063;48.140;10.250;2024-02-23T00:08:01;0.20;;;0.20;;
8040;SDS011;4063;48.140;10.250;2024-02-23T00:10:27;0.30;;;0.30;;
8040;SDS011;4063;48.140;10.250;2024-02-23T00:12:53;0.20;;;0.20;;
8040;SDS011;4063;48.140;10.250;2024-02-23T00:15:19;0.20;;;0.20;;
8040;SDS011;4063;48.140;10.250;2024-02-23T00:17:45;0.20;;;0.20;;
8040;SDS011;4063;48.140;10.250;2024-02-23T00:20:11;0.30;;;0.30;;
8040;SDS011;4063;48.140;10.250;2024-02-23T00:22:37;0.30;;;0.30;;
8040;SDS011;4063;48.140;10.250;2024-02-23T00:25:03;0.30;;;0.30;;
8040;SDS011;4063;48.140;10.250;2024-02-23T00:27:29;0.30;;;0.30;;
8040;SDS011;4063;48.140;10.250;2024-02-23T00:29:55;0.20;;;0.20;;
8040;SDS011;4063;48.140;10.250;2024-02-23T00:32:21;0.27;;;0.27;;
8040;SDS011;4063;48.140;10.250;2024-02-23T00:34:47;0.40;;;0.40;;
8040;SDS011;4063;48.140;10.250;2024-02-23T00:37:13;0.20;;;0.20;;
8040;SDS011;4063;48.140;10.250;2024-02-23T00:39:40;0.20;;;0.20;;
8040;SDS011;4063;48.140;10.250;2024-02-23T00:42:06;0.30;;;0.30;;
8040;SDS011;4063;48.140;10.250;2024-02-23T00:44:32;0.30;;;0.30;;
8040;SDS011;4063;48.140;10.250;2024-02-23T00:46:58;0.20;;;0.20;;
8040;SDS011;4063;48.140;10.250;2024-02-23T00:49:26;0.30;;;0.30;;
8040;SDS011;4063;48.140;10.250;2024-02-23T00:51:53;0.30;;;0.30;;
8040;SDS011;4063;48.140;10.250;2024-02-23T00:54:19;0.30;;;0.30;;
8040;SDS011;4063;48.140;10.250;2024-02-23T00:56:45;0.30;;;0.30;;
8040;SDS011;4063;48.140;10.250;2024-02-23T00:59:11;0.30;;;0.30;;
8040;SDS011;4063;48.140;10.250;2024-02-23T01:01:37;0.20;;;0.20;;
8040;SDS011;4063;48.140;10.250;2024-02-23T01:04:03;0.20;;;0.20;;
8040;SDS011;4063;48.140;10.250;2024-02-23T01:06:29;0.20;;;0.20;;
8040;SDS011;4063;48.140;10.250;2024-02-23T01:08:55;0.30;;;0.30;;
8040;SDS011;4063;48.140;10.250;2024-02-23T01:11:21;0.30;;;0.30;;
8040;SDS011;4063;48.140;10.250;2024-02-23T01:13:47;0.30;;;0.30;;
8040;SDS011;4063;48.140;10.250;2024-02-23T01:16:13;0.30;;;0.30;;
8040;SDS011;4063;48.140;10.250;2024-02-23T01:18:38;0.20;;;0.20;;
8040;SDS011;4063;48.140;10.250;2024-02-23T01:21:04;0.30;;;0.30;;
8040;SDS011;4063;48.140;10.250;2024-02-23T01:23:30;0.50;;;0.50;;
8040;SDS011;4063;48.140;10.250;2024-02-23T01:25:56;0.40;;;0.40;;
8040;SDS011;4063;48.140;10.250;2024-02-23T01:28:24;0.50;;;0.50;;
8040;SDS011;4063;48.140;10.250;2024-02-23T01:30:50;0.30;;;0.30;;
8040;SDS011;4063;48.140;10.250;2024-02-23T01:33:16;0.67;;;0.50;;
8040;SDS011;4063;48.140;10.250;2024-02-23T01:35:42;0.60;;;0.60;;
8040;SDS011;4063;48.140;10.250;2024-02-23T01:38:08;0.33;;;0.33;;
8040;SDS011;4063;48.140;10.250;2024-02-23T01:40:34;0.50;;;0.40;;
8040;SDS011;4063;48.140;10.250;2024-02-23T01:43:03;0.47;;;0.47;;
8040;SDS011;4063;48.140;10.250;2024-02-23T01:45:30;0.47;;;0.47;;
8040;SDS011;4063;48.140;10.250;2024-02-23T01:47:56;0.50;;;0.50;;
8040;SDS011;4063;48.140;10.250;2024-02-23T01:50:22;0.37;;;0.37;;
8040;SDS011;4063;48.140;10.250;2024-02-23T01:52:48;0.47;;;0.47;;
8040;SDS011;4063;48.140;10.250;2024-02-23T01:55:16;1.07;;;0.40;;
8040;SDS011;4063;48.140;10.250;2024-02-23T01:57:42;2.50;;;0.60;;
8040;SDS011;4063;48.140;10.250;2024-02-23T02:00:08;0.30;;;0.30;;
8040;SDS011;4063;48.140;10.250;2024-02-23T02:02:38;0.50;;;0.50;;
8040;SDS011;4063;48.140;10.250;2024-02-23T02:05:04;0.50;;;0.50;;
8040;SDS011;4063;48.140;10.250;2024-02-23T02:07:32;0.43;;;0.43;;
8040;SDS011;4063;48.140;10.250;2024-02-23T02:09:58;0.60;;;0.60;;
8040;SDS011;4063;48.140;10.250;2024-02-23T02:12:27;0.63;;;0.63;;
8040;SDS011;4063;48.140;10.250;2024-02-23T02:14:53;0.50;;;0.50;;
8040;SDS011;4063;48.140;10.250;2024-02-23T02:17:20;1.00;;;0.90;;
8040;SDS011;4063;48.140;10.250;2024-02-23T02:19:47;2.00;;;1.40;;
8040;SDS011;4063;48.140;10.250;2024-02-23T02:22:14;4.85;;;2.00;;
8040;SDS011;4063;48.140;10.250;2024-02-23T02:24:39;7.50;;;3.30;;
8040;SDS011;4063;48.140;10.250;2024-02-23T02:27:08;0.30;;;0.30;;
8040;SDS011;4063;48.140;10.250;2024-02-23T02:29:35;0.20;;;0.20;;
8040;SDS011;4063;48.140;10.250;2024-02-23T02:32:01;0.30;;;0.30;;
8040;SDS011;4063;48.140;10.250;2024-02-23T02:34:27;0.20;;;0.20;;
8040;SDS011;4063;48.140;10.250;2024-02-23T02:36:53;0.30;;;0.30;;
8040;SDS011;4063;48.140;10.250;2024-02-23T02:39:19;0.30;;;0.30;;
8040;SDS011;4063;48.140;10.250;2024-02-23T02:41:47;0.30;;;0.30;;
8040;SDS011;4063;48.140;10.250;2024-02-23T02:44:13;0.30;;;0.30;;
8040;SDS011;4063;48.140;10.250;2024-02-23T02:46:40;0.23;;;0.23;;
8040;SDS011;4063;48.140;10.250;2024-02-23T02:49:06;0.30;;;0.30;;
8040;SDS011;4063;48.140;10.250;2024-02-23T02:51:32;0.20;;;0.20;;
8040;SDS011;4063;48.140;10.250;2024-02-23T02:53:58;0.30;;;0.30;;
8040;SDS011;4063;48.140;10.250;2024-02-23T02:56:24;0.30;;;0.30;;
8040;SDS011;4063;48.140;10.250;2024-02-23T02:58:49;0.30;;;0.30;;
8040;SDS011;4063;48.140;10.250;2024-02-23T03:01:16;0.30;;;0.30;;
8040;SDS011;4063;48.140;10.250;2024-02-23T03:03:42;0.30;;;0.30;;
8040;SDS011;4063;48.140;10.250;2024-02-23T03:06:08;0.30;;;0.30;;
8040;SDS011;4063;48.140;10.250;2024-02-23T03:08:34;0.20;;;0.20;;
8040;SDS011;4063;48.140;10.250;2024-02-23T03:11:00;0.30;;;0.30;;
8040;SDS011;4063;48.140;10.250;2024-02-23T03:13:26;0.30;;;0.30;;
8040;SDS011;4063;48.140;10.250;2024-02-23T03:15:52;0.30;;;0.30;;
8040;SDS011;4063;48.140;10.250;2024-02-23T03:18:18;0.30;;;0.30;;
8040;SDS011;4063;48.140;10.250;2024-02-23T03:20:44;0.30;;;0.30;;
8040;SDS011;4063;48.140;10.250;2024-02-23T03:23:11;0.30;;;0.30;;
8040;SDS011;4063;48.140;10.250;2024-02-23T03:25:37;0.20;;;0.20;;
8040;SDS011;4063;48.140;10.250;2024-02-23T03:28:03;0.30;;;0.30;;
8040;SDS011;4063;48.140;10.250;2024-02-23T03:30:29;0.30;;;0.30;;
8040;SDS011;4063;48.140;10.250;2024-02-23T03:32:54;0.30;;;0.30;;
8040;SDS011;4063;48.140;10.250;2024-02-23T03:35:20;0.30;;;0.30;;
8040;SDS011;4063;48.140;10.250;2024-02-23T03:37:46;0.30;;;0.30;;
8040;SDS011;4063;48.140;10.250;2024-02-23T03:40:12;0.30;;;0.30;;
8040;SDS011;4063;48.140;10.250;2024-02-23T03:42:38;0.30;;;0.30;;
8040;SDS011;4063;48.140;10.250;2024-02-23T03:45:04;0.30;;;0.30;;
8040;SDS011;4063;48.140;10.250;2024-02-23T03:47:31;0.30;;;0.30;;
8040;SDS011;4063;48.140;10.250;2024-02-23T03:49:57;0.30;;;0.30;;
8040;SDS011;4063;48.140;10.250;2024-02-23T03:52:23;0.30;;;0.30;;
8040;SDS011;4063;48.140;10.250;2024-02-23T03:54:49;0.30;;;0.30;;
8040;SDS011;4063;48.140;10.250;2024-02-23T03:57:16;0.30;;;0.30;;
8040;SDS011;4063;48.140;10.250;2024-02-23T03:59:54;0.23;;;0.23;;
8040;SDS011;4063;48.140;10.250;2024-02-23T04:02:21;0.23;;;0.23;;
8040;SDS011;4063;48.140;10.250;2024-02-23T04:04:47;0.30;;;0.30;;
8040;SDS011;4063;48.140;10.250;2024-02-23T04:07:13;0.30;;;0.30;;
8040;SDS011;4063;48.140;10.250;2024-02-23T04:09:40;0.30;;;0.30;;
8040;SDS011;4063;48.140;10.250;2024-02-23T04:12:06;0.20;;;0.20;;
8040;SDS011;4063;48.140;10.250;2024-02-23T04:14:34;0.30;;;0.30;;
8040;SDS011;4063;48.140;10.250;2024-02-23T04:17:04;0.30;;;0.30;;
8040;SDS011;4063;48.140;10.250;2024-02-23T04:19:30;0.30;;;0.30;;
8040;SDS011;4063;48.140;10.250;2024-02-23T04:21:56;0.30;;;0.30;;
8040;SDS011;4063;48.140;10.250;2024-02-23T04:24:22;0.30;;;0.30;;
8040;SDS011;4063;48.140;10.250;2024-02-23T04:26:48;0.30;;;0.30;;
8040;SDS011;4063;48.140;10.250;2024-02-23T04:29:14;0.30;;;0.30;;
8040;SDS011;4063;48.140;10.250;2024-02-23T04:31:40;0.30;;;0.30;;
8040;SDS011;4063;48.140;10.250;2024-02-23T04:34:06;0.30;;;0.30;;
8040;SDS011;4063;48.140;10.250;2024-02-23T04:36:32;0.20;;;0.20;;
8040;SDS011;4063;48.140;10.250;2024-02-23T04:38:58;0.30;;;0.30;;
8040;SDS011;4063;48.140;10.250;2024-02-23T04:41:24;0.30;;;0.30;;
8040;SDS011;4063;48.140;10.250;2024-02-23T04:43:50;0.30;;;0.30;;
8040;SDS011;4063;48.140;10.250;2024-02-23T04:46:17;0.30;;;0.30;;
8040;SDS011;4063;48.140;10.250;2024-02-23T04:48:43;0.30;;;0.30;;
8040;SDS011;4063;48.140;10.250;2024-02-23T04:51:09;0.40;;;0.40;;
8040;SDS011;4063;48.140;10.250;2024-02-23T04:53:38;0.30;;;0.30;;
8040;SDS011;4063;48.140;10.250;2024-02-23T04:56:04;0.30;;;0.30;;
8040;SDS011;4063;48.140;10.250;2024-02-23T04:58:31;0.30;;;0.30;;
8040;SDS011;4063;48.140;10.250;2024-02-23T05:00:57;0.30;;;0.30;;
8040;SDS011;4063;48.140;10.250;2024-02-23T05:03:23;0.30;;;0.30;;
8040;SDS011;4063;48.140;10.250;2024-02-23T05:05:49;0.30;;;0.30;;
8040;SDS011;4063;48.140;10.250;2024-02-23T05:08:18;0.30;;;0.30;;
8040;SDS011;4063;48.140;10.250;2024-02-23T05:10:45;0.30;;;0.30;;
8040;SDS011;4063;48.140;10.250;2024-02-23T05:13:11;0.30;;;0.30;;
8040;SDS011;4063;48.140;10.250;2024-02-23T05:15:37;0.30;;;0.30;;
8040;SDS011;4063;48.140;10.250;2024-02-23T05:18:04;0.30;;;0.30;;
8040;SDS011;4063;48.140;10.250;2024-02-23T05:20:30;0.30;;;0.30;;
8040;SDS011;4063;48.140;10.250;2024-02-23T05:22:56;0.20;;;0.20;;
8040;SDS011;4063;48.140;10.250;2024-02-23T05:25:22;0.20;;;0.20;;
8040;SDS011;4063;48.140;10.250;2024-02-23T05:27:50;0.27;;;0.27;;
8040;SDS011;4063;48.140;10.250;2024-02-23T05:30:16;0.30;;;0.30;;
8040;SDS011;4063;48.140;10.250;2024-02-23T05:32:42;0.30;;;0.30;;
8040;SDS011;4063;48.140;10.250;2024-02-23T05:35:08;0.30;;;0.30;;
8040;SDS011;4063;48.140;10.250;2024-02-23T05:37:35;0.40;;;0.40;;
8040;SDS011;4063;48.140;10.250;2024-02-23T05:40:02;0.30;;;0.30;;
8040;SDS011;4063;48.140;10.250;2024-02-23T05:42:31;0.30;;;0.30;;
8040;SDS011;4063;48.140;10.250;2024-02-23T05:44:57;0.30;;;0.30;;
8040;SDS011;4063;48.140;10.250;2024-02-23T05:47:23;0.23;;;0.23;;
8040;SDS011;4063;48.140;10.250;2024-02-23T05:49:50;0.30;;;0.30;;
8040;SDS011;4063;48.140;10.250;2024-02-23T05:52:16;0.30;;;0.30;;
8040;SDS011;4063;48.140;10.250;2024-02-23T05:54:42;0.30;;;0.30;;
8040;SDS011;4063;48.140;10.250;2024-02-23T05:57:08;0.30;;;0.30;;
8040;SDS011;4063;48.140;10.250;2024-02-23T05:59:34;0.30;;;0.30;;
8040;SDS011;4063;48.140;10.250;2024-02-23T06:02:00;0.30;;;0.30;;
8040;SDS011;4063;48.140;10.250;2024-02-23T06:04:26;0.30;;;0.30;;
8040;SDS011;4063;48.140;10.250;2024-02-23T06:06:52;0.30;;;0.30;;
8040;SDS011;4063;48.140;10.250;2024-02-23T06:09:18;0.20;;;0.20;;
8040;SDS011;4063;48.140;10.250;2024-02-23T06:11:44;0.30;;;0.30;;
8040;SDS011;4063;48.140;10.250;2024-02-23T06:14:10;0.30;;;0.30;;
8040;SDS011;4063;48.140;10.250;2024-02-23T06:16:36;0.30;;;0.30;;
8040;SDS011;4063;48.140;10.250;2024-02-23T06:19:02;0.30;;;0.30;;
8040;SDS011;4063;48.140;10.250;2024-02-23T06:21:28;0.20;;;0.20;;
8040;SDS011;4063;48.140;10.250;2024-02-23T06:23:55;0.30;;;0.30;;
8040;SDS011;4063;48.140;10.250;2024-02-23T06:26:21;0.20;;;0.20;;
8040;SDS011;4063;48.140;10.250;2024-02-23T06:28:47;0.20;;;0.20;;
8040;SDS011;4063;48.140;10.250;2024-02-23T06:31:13;0.30;;;0.30;;
8040;SDS011;4063;48.140;10.250;2024-02-23T06:33:40;0.30;;;0.30;;
8040;SDS011;4063;48.140;10.250;2024-02-23T06:36:06;0.40;;;0.40;;
8040;SDS011;4063;48.140;10.250;2024-02-23T06:38:32;0.30;;;0.30;;
8040;SDS011;4063;48.140;10.250;2024-02-23T06:40:58;0.23;;;0.23;;
8040;SDS011;4063;48.140;10.250;2024-02-23T06:43:24;0.30;;;0.30;;
8040;SDS011;4063;48.140;10.250;2024-02-23T06:45:51;0.30;;;0.30;;
8040;SDS011;4063;48.140;10.250;2024-02-23T06:48:17;0.30;;;0.30;;
8040;SDS011;4063;48.140;10.250;2024-02-23T06:50:43;0.30;;;0.30;;
8040;SDS011;4063;48.140;10.250;2024-02-23T06:53:09;0.20;;;0.20;;
8040;SDS011;4063;48.140;10.250;2024-02-23T06:55:35;0.40;;;0.40;;
8040;SDS011;4063;48.140;10.250;2024-02-23T06:58:01;0.30;;;0.30;;
8040;SDS011;4063;48.140;10.250;2024-02-23T07:00:29;0.30;;;0.30;;
8040;SDS011;4063;48.140;10.250;2024-02-23T07:02:55;0.30;;;0.30;;
8040;SDS011;4063;48.140;10.250;2024-02-23T07:05:24;0.30;;;0.30;;
8040;SDS011;4063;48.140;10.250;2024-02-23T07:07:50;0.27;;;0.27;;
8040;SDS011;4063;48.140;10.250;2024-02-23T07:10:16;0.20;;;0.20;;
8040;SDS011;4063;48.140;10.250;2024-02-23T07:12:43;0.30;;;0.30;;
8040;SDS011;4063;48.140;10.250;2024-02-23T07:15:09;0.30;;;0.30;;
8040;SDS011;4063;48.140;10.250;2024-02-23T07:17:35;0.40;;;0.40;;
8040;SDS011;4063;48.140;10.250;2024-02-23T07:20:01;0.40;;;0.40;;
8040;SDS011;4063;48.140;10.250;2024-02-23T07:22:31;0.27;;;0.27;;
8040;SDS011;4063;48.140;10.250;2024-02-23T07:24:57;0.20;;;0.20;;
8040;SDS011;4063;48.140;10.250;2024-02-23T07:27:23;0.30;;;0.30;;
8040;SDS011;4063;48.140;10.250;2024-02-23T07:29:49;0.30;;;0.30;;
8040;SDS011;4063;48.140;10.250;2024-02-23T07:32:15;0.30;;;0.30;;
8040;SDS011;4063;48.140;10.250;2024-02-23T07:34:41;0.30;;;0.30;;
8040;SDS011;4063;48.140;10.250;2024-02-23T07:37:07;0.27;;;0.27;;
8040;SDS011;4063;48.140;10.250;2024-02-23T07:39:34;0.30;;;0.30;;
8040;SDS011;4063;48.140;10.250;2024-02-23T07:42:00;0.30;;;0.30;;
8040;SDS011;4063;48.140;10.250;2024-02-23T07:44:27;0.30;;;0.30;;
8040;SDS011;4063;48.140;10.250;2024-02-23T07:46:53;0.30;;;0.30;;
8040;SDS011;4063;48.140;10.250;2024-02-23T07:49:20;0.30;;;0.30;;
8040;SDS011;4063;48.140;10.250;2024-02-23T07:51:47;0.30;;;0.30;;
8040;SDS011;4063;48.140;10.250;2024-02-23T07:54:13;0.30;;;0.30;;
8040;SDS011;4063;48.140;10.250;2024-02-23T07:56:39;0.20;;;0.20;;
8040;SDS011;4063;48.140;10.250;2024-02-23T07:59:05;0.30;;;0.30;;
8040;SDS011;4063;48.140;10.250;2024-02-23T08:01:31;0.30;;;0.30;;
8040;SDS011;4063;48.140;10.250;2024-02-23T08:03:57;0.30;;;0.30;;
8040;SDS011;4063;48.140;10.250;2024-02-23T08:06:23;0.30;;;0.30;;
8040;SDS011;4063;48.140;10.250;2024-02-23T08:08:50;0.30;;;0.30;;
8040;SDS011;4063;48.140;10.250;2024-02-23T08:11:18;0.30;;;0.30;;
8040;SDS011;4063;48.140;10.250;2024-02-23T08:13:44;0.30;;;0.30;;
8040;SDS011;4063;48.140;10.250;2024-02-23T08:16:10;0.30;;;0.30;;
8040;SDS011;4063;48.140;10.250;2024-02-23T08:18:36;0.30;;;0.30;;
8040;SDS011;4063;48.140;10.250;2024-02-23T08:21:02;0.30;;;0.30;;
8040;SDS011;4063;48.140;10.250;2024-02-23T08:23:30;0.30;;;0.30;;
8040;SDS011;4063;48.140;10.250;2024-02-23T08:25:56;0.30;;;0.30;;
8040;SDS011;4063;48.140;10.250;2024-02-23T08:28:23;0.30;;;0.30;;
8040;SDS011;4063;48.140;10.250;2024-02-23T08:30:49;0.23;;;0.23;;
8040;SDS011;4063;48.140;10.250;2024-02-23T08:33:15;0.30;;;0.30;;
8040;SDS011;4063;48.140;10.250;2024-02-23T08:35:41;0.30;;;0.30;;
8040;SDS011;4063;48.140;10.250;2024-02-23T08:38:07;0.30;;;0.30;;
8040;SDS011;4063;48.140;10.250;2024-02-23T08:40:34;0.30;;;0.30;;
8040;SDS011;4063;48.140;10.250;2024-02-23T08:43:00;1.03;;;0.93;;
8040;SDS011;4063;48.140;10.250;2024-02-23T08:45:26;1.83;;;1.40;;
8040;SDS011;4063;48.140;10.250;2024-02-23T08:47:52;1.80;;;0.83;;
8040;SDS011;4063;48.140;10.250;2024-02-23T08:50:18;2.33;;;1.30;;
8040;SDS011;4063;48.140;10.250;2024-02-23T08:52:44;4.30;;;1.20;;
8040;SDS011;4063;48.140;10.250;2024-02-23T08:55:10;0.83;;;0.83;;
8040;SDS011;4063;48.140;10.250;2024-02-23T08:57:36;2.70;;;1.00;;
8040;SDS011;4063;48.140;10.250;2024-02-23T09:00:03;2.63;;;1.10;;
8040;SDS011;4063;48.140;10.250;2024-02-23T09:02:29;2.40;;;1.00;;
8040;SDS011;4063;48.140;10.250;2024-02-23T09:04:57;2.37;;;1.00;;
8040;SDS011;4063;48.140;10.250;2024-02-23T09:07:23;6.30;;;1.30;;
8040;SDS011;4063;48.140;10.250;2024-02-23T09:09:49;1.17;;;1.10;;
8040;SDS011;4063;48.140;10.250;2024-02-23T09:12:15;1.73;;;1.10;;
8040;SDS011;4063;48.140;10.250;2024-02-23T09:14:44;2.03;;;1.20;;
8040;SDS011;4063;48.140;10.250;2024-02-23T09:17:10;3.37;;;1.13;;
8040;SDS011;4063;48.140;10.250;2024-02-23T09:19:37;1.80;;;1.13;;
8040;SDS011;4063;48.140;10.250;2024-02-23T09:22:03;2.00;;;1.20;;
8040;SDS011;4063;48.140;10.250;2024-02-23T09:24:29;3.30;;;1.33;;
8040;SDS011;4063;48.140;10.250;2024-02-23T09:26:55;3.70;;;1.20;;
8040;SDS011;4063;48.140;10.250;2024-02-23T09:29:21;3.43;;;1.20;;
8040;SDS011;4063;48.140;10.250;2024-02-23T09:31:47;3.27;;;1.20;;
8040;SDS011;4063;48.140;10.250;2024-02-23T09:34:13;1.77;;;1.17;;
8040;SDS011;4063;48.140;10.250;2024-02-23T09:36:40;1.57;;;0.83;;
8040;SDS011;4063;48.140;10.250;2024-02-23T09:39:06;4.83;;;1.40;;
8040;SDS011;4063;48.140;10.250;2024-02-23T09:41:32;3.57;;;1.53;;
8040;SDS011;4063;48.140;10.250;2024-02-23T09:44:00;1.83;;;1.23;;
8040;SDS011;4063;48.140;10.250;2024-02-23T09:46:27;4.30;;;1.80;;
8040;SDS011;4063;48.140;10.250;2024-02-23T09:48:53;1.47;;;1.27;;
8040;SDS011;4063;48.140;10.250;2024-02-23T09:51:20;2.83;;;1.10;;
8040;SDS011;4063;48.140;10.250;2024-02-23T09:53:46;1.77;;;1.13;;
8040;SDS011;4063;48.140;10.250;2024-02-23T09:56:15;2.70;;;1.00;;
8040;SDS011;4063;48.140;10.250;2024-02-23T09:58:44;4.33;;;1.30;;
8040;SDS011;4063;48.140;10.250;2024-02-23T10:01:12;3.10;;;1.40;;
8040;SDS011;4063;48.140;10.250;2024-02-23T10:03:41;6.00;;;1.50;;
8040;SDS011;4063;48.140;10.250;2024-02-23T10:06:07;3.23;;;1.27;;
8040;SDS011;4063;48.140;10.250;2024-02-23T10:08:33;3.13;;;1.30;;
8040;SDS011;4063;48.140;10.250;2024-02-23T10:11:00;3.40;;;1.23;;
8040;SDS011;4063;48.140;10.250;2024-02-23T10:13:27;4.27;;;1.47;;
8040;SDS011;4063;48.140;10.250;2024-02-23T10:15:55;4.20;;;1.27;;
8040;SDS011;4063;48.140;10.250;2024-02-23T10:18:21;4.17;;;1.50;;
8040;SDS011;4063;48.140;10.250;2024-02-23T10:20:48;2.07;;;1.47;;
8040;SDS011;4063;48.140;10.250;2024-02-23T10:23:15;2.20;;;1.83;;
8040;SDS011;4063;48.140;10.250;2024-02-23T10:25:41;5.00;;;3.43;;
8040;SDS011;4063;48.140;10.250;2024-02-23T10:28:07;6.83;;;4.03;;
8040;SDS011;4063;48.140;10.250;2024-02-23T10:30:36;3.67;;;2.07;;
8040;SDS011;4063;48.140;10.250;2024-02-23T10:33:03;4.03;;;1.40;;
8040;SDS011;4063;48.140;10.250;2024-02-23T10:35:30;5.03;;;1.37;;
8040;SDS011;4063;48.140;10.250;2024-02-23T10:38:03;4.00;;;1.33;;
8040;SDS011;4063;48.140;10.250;2024-02-23T10:40:30;1.30;;;1.20;;
8040;SDS011;4063;48.140;10.250;2024-02-23T10:42:59;2.07;;;1.37;;
8040;SDS011;4063;48.140;10.250;2024-02-23T10:45:28;2.67;;;1.23;;
8040;SDS011;4063;48.140;10.250;2024-02-23T10:47:54;2.10;;;1.40;;
8040;SDS011;4063;48.140;10.250;2024-02-23T10:50:21;2.33;;;1.10;;
8040;SDS011;4063;48.140;10.250;2024-02-23T10:52:47;1.87;;;1.30;;
8040;SDS011;4063;48.140;10.250;2024-02-23T10:55:14;1.00;;;1.00;;
8040;SDS011;4063;48.140;10.250;2024-02-23T10:57:40;4.17;;;1.47;;
8040;SDS011;4063;48.140;10.250;2024-02-23T11:00:07;2.43;;;1.20;;
8040;SDS011;4063;48.140;10.250;2024-02-23T11:02:39;4.73;;;1.53;;
8040;SDS011;4063;48.140;10.250;2024-02-23T11:05:06;1.27;;;1.17;;
8040;SDS011;4063;48.140;10.250;2024-02-23T11:07:37;2.03;;;1.10;;
8040;SDS011;4063;48.140;10.250;2024-02-23T11:10:04;2.97;;;1.30;;
8040;SDS011;4063;48.140;10.250;2024-02-23T11:12:30;5.10;;;1.10;;
8040;SDS011;4063;48.140;10.250;2024-02-23T11:14:57;1.80;;;1.10;;
8040;SDS011;4063;48.140;10.250;2024-02-23T11:17:26;1.70;;;1.05;;
8040;SDS011;4063;48.140;10.250;2024-02-23T11:19:54;2.90;;;1.20;;
8040;SDS011;4063;48.140;10.250;2024-02-23T11:22:27;1.57;;;1.30;;
8040;SDS011;4063;48.140;10.250;2024-02-23T11:24:59;3.67;;;1.80;;
8040;SDS011;4063;48.140;10.250;2024-02-23T11:27:29;2.50;;;1.10;;
8040;SDS011;4063;48.140;10.250;2024-02-23T11:30:03;1.53;;;1.07;;
8040;SDS011;4063;48.140;10.250;2024-02-23T11:32:39;3.60;;;1.40;;
8040;SDS011;4063;48.140;10.250;2024-02-23T11:35:06;3.43;;;1.47;;
8040;SDS011;4063;48.140;10.250;2024-02-23T11:37:32;4.23;;;2.50;;
8040;SDS011;4063;48.140;10.250;2024-02-23T11:39:59;1.90;;;1.40;;
8040;SDS011;4063;48.140;10.250;2024-02-23T11:42:28;3.07;;;1.47;;
8040;SDS011;4063;48.140;10.250;2024-02-23T11:44:55;1.60;;;1.00;;
8040;SDS011;4063;48.140;10.250;2024-02-23T11:47:23;1.27;;;1.03;;
8040;SDS011;4063;48.140;10.250;2024-02-23T11:49:49;1.43;;;1.20;;
8040;SDS011;4063;48.140;10.250;2024-02-23T11:52:15;1.80;;;1.20;;
8040;SDS011;4063;48.140;10.250;2024-02-23T11:54:42;3.63;;;1.20;;
8040;SDS011;4063;48.140;10.250;2024-02-23T11:57:08;1.70;;;1.10;;
8040;SDS011;4063;48.140;10.250;2024-02-23T11:59:34;6.83;;;4.80;;
8040;SDS011;4063;48.140;10.250;2024-02-23T12:02:00;6.10;;;3.27;;
8040;SDS011;4063;48.140;10.250;2024-02-23T12:04:27;1.33;;;1.23;;
8040;SDS011;4063;48.140;10.250;2024-02-23T12:06:54;1.80;;;1.30;;
8040;SDS011;4063;48.140;10.250;2024-02-23T12:09:20;0.90;;;0.90;;
8040;SDS011;4063;48.140;10.250;2024-02-23T12:11:46;2.20;;;1.00;;
8040;SDS011;4063;48.140;10.250;2024-02-23T12:14:13;1.00;;;0.90;;
8040;SDS011;4063;48.140;10.250;2024-02-23T12:16:39;2.47;;;1.00;;
8040;SDS011;4063;48.140;10.250;2024-02-23T12:19:07;2.28;;;1.20;;
8040;SDS011;4063;48.140;10.250;2024-02-23T12:21:36;2.10;;;1.20;;
8040;SDS011;4063;48.140;10.250;2024-02-23T12:24:05;1.33;;;1.20;;
8040;SDS011;4063;48.140;10.250;2024-02-23T12:26:35;1.43;;;1.20;;
8040;SDS011;4063;48.140;10.250;2024-02-23T12:29:01;1.83;;;1.30;;
8040;SDS011;4063;48.140;10.250;2024-02-23T12:31:27;2.17;;;1.30;;
8040;SDS011;4063;48.140;10.250;2024-02-23T12:33:53;1.10;;;1.00;;
8040;SDS011;4063;48.140;10.250;2024-02-23T12:36:19;4.30;;;1.40;;
8040;SDS011;4063;48.140;10.250;2024-02-23T12:38:45;1.00;;;0.90;;
8040;SDS011;4063;48.140;10.250;2024-02-23T12:41:11;2.90;;;1.17;;
8040;SDS011;4063;48.140;10.250;2024-02-23T12:43:37;3.03;;;1.20;;
8040;SDS011;4063;48.140;10.250;2024-02-23T12:46:03;1.87;;;1.20;;
8040;SDS011;4063;48.140;10.250;2024-02-23T12:48:29;2.67;;;1.20;;
8040;SDS011;4063;48.140;10.250;2024-02-23T12:50:55;1.23;;;0.90;;
8040;SDS011;4063;48.140;10.250;2024-02-23T12:53:37;4.63;;;1.10;;
8040;SDS011;4063;48.140;10.250;2024-02-23T12:56:07;1.50;;;1.27;;
8040;SDS011;4063;48.140;10.250;2024-02-23T12:58:33;1.43;;;1.33;;
8040;SDS011;4063;48.140;10.250;2024-02-23T13:00:59;1.43;;;1.00;;
8040;SDS011;4063;48.140;10.250;2024-02-23T13:03:26;2.83;;;1.20;;
8040;SDS011;4063;48.140;10.250;2024-02-23T13:05:52;2.93;;;1.27;;
8040;SDS011;4063;48.140;10.250;2024-02-23T13:08:19;2.20;;;1.30;;
8040;SDS011;4063;48.140;10.250;2024-02-23T13:10:44;1.97;;;1.30;;
8040;SDS011;4063;48.140;10.250;2024-02-23T13:13:11;2.63;;;1.20;;
8040;SDS011;4063;48.140;10.250;2024-02-23T13:15:39;5.10;;;1.37;;
8040;SDS011;4063;48.140;10.250;2024-02-23T13:18:05;1.20;;;1.00;;
8040;SDS011;4063;48.140;10.250;2024-02-23T13:20:32;1.80;;;1.03;;
8040;SDS011;4063;48.140;10.250;2024-02-23T13:22:58;1.80;;;1.20;;
8040;SDS011;4063;48.140;10.250;2024-02-23T13:25:24;2.80;;;1.40;;
8040;SDS011;4063;48.140;10.250;2024-02-23T13:27:49;2.80;;;1.43;;
8040;SDS011;4063;48.140;10.250;2024-02-23T13:30:16;3.37;;;1.60;;
8040;SDS011;4063;48.140;10.250;2024-02-23T13:32:42;2.83;;;1.73;;
8040;SDS011;4063;48.140;10.250;2024-02-23T13:35:08;3.93;;;2.03;;
8040;SDS011;4063;48.140;10.250;2024-02-23T13:37:34;2.30;;;1.60;;
8040;SDS011;4063;48.140;10.250;2024-02-23T13:40:00;3.47;;;1.47;;
8040;SDS011;4063;48.140;10.250;2024-02-23T13:42:28;5.20;;;2.30;;
8040;SDS011;4063;48.140;10.250;2024-02-23T13:44:54;4.47;;;1.83;;
8040;SDS011;4063;48.140;10.250;2024-02-23T13:47:20;1.60;;;1.50;;
8040;SDS011;4063;48.140;10.250;2024-02-23T13:49:46;4.03;;;1.50;;
8040;SDS011;4063;48.140;10.250;2024-02-23T13:52:12;1.20;;;1.10;;
8040;SDS011;4063;48.140;10.250;2024-02-23T13:54:38;1.30;;;1.20;;
8040;SDS011;4063;48.140;10.250;2024-02-23T13:57:04;2.60;;;1.23;;
8040;SDS011;4063;48.140;10.250;2024-02-23T13:59:30;3.30;;;1.23;;
8040;SDS011;4063;48.140;10.250;2024-02-23T14:01:56;2.70;;;1.70;;
8040;SDS011;4063;48.140;10.250;2024-02-23T14:04:22;4.97;;;2.03;;
8040;SDS011;4063;48.140;10.250;2024-02-23T14:06:48;3.83;;;2.00;;
8040;SDS011;4063;48.140;10.250;2024-02-23T14:09:14;1.67;;;1.50;;
8040;SDS011;4063;48.140;10.250;2024-02-23T14:11:40;1.60;;;1.40;;
8040;SDS011;4063;48.140;10.250;2024-02-23T14:14:06;2.97;;;1.50;;
8040;SDS011;4063;48.140;10.250;2024-02-23T14:16:32;2.20;;;1.30;;
8040;SDS011;4063;48.140;10.250;2024-02-23T14:18:59;2.43;;;1.37;;
8040;SDS011;4063;48.140;10.250;2024-02-23T14:21:25;2.53;;;1.93;;
8040;SDS011;4063;48.140;10.250;2024-02-23T14:23:52;3.60;;;1.40;;
8040;SDS011;4063;48.140;10.250;2024-02-23T14:26:18;1.70;;;1.20;;
8040;SDS011;4063;48.140;10.250;2024-02-23T14:28:43;1.10;;;1.00;;
8040;SDS011;4063;48.140;10.250;2024-02-23T14:31:09;3.17;;;1.10;;
8040;SDS011;4063;48.140;10.250;2024-02-23T14:33:35;1.17;;;1.00;;
8040;SDS011;4063;48.140;10.250;2024-02-23T14:36:02;2.93;;;1.10;;
8040;SDS011;4063;48.140;10.250;2024-02-23T14:38:28;2.10;;;1.10;;
8040;SDS011;4063;48.140;10.250;2024-02-23T14:40:54;2.27;;;1.30;;
8040;SDS011;4063;48.140;10.250;2024-02-23T14:43:20;1.90;;;0.90;;
8040;SDS011;4063;48.140;10.250;2024-02-23T14:45:46;3.30;;;1.40;;
8040;SDS011;4063;48.140;10.250;2024-02-23T14:48:12;4.37;;;1.50;;
8040;SDS011;4063;48.140;10.250;2024-02-23T14:50:38;1.13;;;1.03;;
8040;SDS011;4063;48.140;10.250;2024-02-23T14:53:04;3.00;;;1.50;;
8040;SDS011;4063;48.140;10.250;2024-02-23T14:55:31;3.07;;;1.67;;